sensor_id;sensor_type;location;lat;lon;timestamp;temperature;humidity
76897;SHT30;65856;52.178;21.176;2023-01-15T00:00:03;5.23;76.67
76897;SHT30;65856;52.178;21.176;2023-01-15T00:02:36;5.22;76.55
76897;SHT30;65856;52.178;21.176;2023-01-15T00:05:05;5.22;76.48
76897;SHT30;65856;52.178;21.176;2023-01-15T00:07:34;5.24;76.38
76897;SHT30;65856;52.178;21.176;2023-01-15T00:10:02;5.28;76.27
76897;SHT30;65856;52.178;21.176;2023-01-15T00:12:32;5.29;76.20
76897;SHT30;65856;52.178;21.176;2023-01-15T00:15:00;5.29;76.12
76897;SHT30;65856;52.178;21.176;2023-01-15T00:17:29;5.29;76.03
76897;SHT30;65856;52.178;21.176;2023-01-15T00:19:57;5.27;76.03
76897;SHT30;65856;52.178;21.176;2023-01-15T00:22:25;5.25;76.02
76897;SHT30;65856;52.178;21.176;2023-01-15T00:24:54;5.24;75.94
76897;SHT30;65856;52.178;21.176;2023-01-15T00:27:40;5.24;75.91
76897;SHT30;65856;52.178;21.176;2023-01-15T00:30:11;5.26;75.91
76897;SHT30;65856;52.178;21.176;2023-01-15T00:32:41;5.25;75.83
76897;SHT30;65856;52.178;21.176;2023-01-15T00:35:11;5.23;75.79
76897;SHT30;65856;52.178;21.176;2023-01-15T00:37:42;5.20;75.83
76897;SHT30;65856;52.178;21.176;2023-01-15T00:40:11;5.18;75.89
76897;SHT30;65856;52.178;21.176;2023-01-15T00:42:40;5.15;75.91
76897;SHT30;65856;52.178;21.176;2023-01-15T00:45:09;5.14;76.03
76897;SHT30;65856;52.178;21.176;2023-01-15T00:47:38;5.12;76.00
76897;SHT30;65856;52.178;21.176;2023-01-15T00:50:09;5.12;75.93
76897;SHT30;65856;52.178;21.176;2023-01-15T00:52:40;5.16;75.95
76897;SHT30;65856;52.178;21.176;2023-01-15T00:55:08;5.15;75.78
76897;SHT30;65856;52.178;21.176;2023-01-15T00:57:36;5.14;75.76
76897;SHT30;65856;52.178;21.176;2023-01-15T01:00:05;5.11;75.78
76897;SHT30;65856;52.178;21.176;2023-01-15T01:02:37;5.09;75.69
76897;SHT30;65856;52.178;21.176;2023-01-15T01:05:05;5.09;75.69
76897;SHT30;65856;52.178;21.176;2023-01-15T01:07:35;5.09;75.67
76897;SHT30;65856;52.178;21.176;2023-01-15T01:10:04;5.11;75.63
76897;SHT30;65856;52.178;21.176;2023-01-15T01:12:34;5.13;75.60
76897;SHT30;65856;52.178;21.176;2023-01-15T01:15:02;5.12;75.47
76897;SHT30;65856;52.178;21.176;2023-01-15T01:17:35;5.09;75.37
76897;SHT30;65856;52.178;21.176;2023-01-15T01:20:04;5.08;75.39
76897;SHT30;65856;52.178;21.176;2023-01-15T01:22:35;5.07;75.40
76897;SHT30;65856;52.178;21.176;2023-01-15T01:25:04;5.06;75.39
76897;SHT30;65856;52.178;21.176;2023-01-15T01:27:34;5.06;75.28
76897;SHT30;65856;52.178;21.176;2023-01-15T01:30:03;5.07;75.23
76897;SHT30;65856;52.178;21.176;2023-01-15T01:32:34;5.09;75.11
76897;SHT30;65856;52.178;21.176;2023-01-15T01:35:02;5.11;75.09
76897;SHT30;65856;52.178;21.176;2023-01-15T01:37:31;5.11;75.06
76897;SHT30;65856;52.178;21.176;2023-01-15T01:39:59;5.10;74.94
76897;SHT30;65856;52.178;21.176;2023-01-15T01:42:28;5.09;74.88
76897;SHT30;65856;52.178;21.176;2023-01-15T01:45:00;5.07;74.80
76897;SHT30;65856;52.178;21.176;2023-01-15T01:47:45;5.04;74.85
76897;SHT30;65856;52.178;21.176;2023-01-15T01:50:13;5.04;74.87
76897;SHT30;65856;52.178;21.176;2023-01-15T01:52:44;5.04;74.90
76897;SHT30;65856;52.178;21.176;2023-01-15T01:55:18;5.03;74.86
76897;SHT30;65856;52.178;21.176;2023-01-15T01:57:50;5.01;74.87
76897;SHT30;65856;52.178;21.176;2023-01-15T02:00:24;4.99;74.88
76897;SHT30;65856;52.178;21.176;2023-01-15T02:02:54;4.96;74.90
76897;SHT30;65856;52.178;21.176;2023-01-15T02:05:24;4.92;74.92
76897;SHT30;65856;52.178;21.176;2023-01-15T02:07:57;4.88;75.03
76897;SHT30;65856;52.178;21.176;2023-01-15T02:10:26;4.85;75.03
76897;SHT30;65856;52.178;21.176;2023-01-15T02:12:55;4.84;75.01
76897;SHT30;65856;52.178;21.176;2023-01-15T02:15:34;4.82;75.01
76897;SHT30;65856;52.178;21.176;2023-01-15T02:18:08;4.80;75.00
76897;SHT30;65856;52.178;21.176;2023-01-15T02:20:47;4.76;75.07
76897;SHT30;65856;52.178;21.176;2023-01-15T02:23:34;4.72;75.10
76897;SHT30;65856;52.178;21.176;2023-01-15T02:29:23;4.66;75.19
76897;SHT30;65856;52.178;21.176;2023-01-15T02:32:00;4.63;75.17
76897;SHT30;65856;52.178;21.176;2023-01-15T02:34:35;4.64;75.17
76897;SHT30;65856;52.178;21.176;2023-01-15T02:37:11;4.64;75.20
76897;SHT30;65856;52.178;21.176;2023-01-15T02:39:47;4.63;75.30
76897;SHT30;65856;52.178;21.176;2023-01-15T02:42:18;4.62;75.30
76897;SHT30;65856;52.178;21.176;2023-01-15T02:44:50;4.61;75.30
76897;SHT30;65856;52.178;21.176;2023-01-15T02:47:23;4.59;75.33
76897;SHT30;65856;52.178;21.176;2023-01-15T02:49:57;4.59;75.34
76897;SHT30;65856;52.178;21.176;2023-01-15T02:52:31;4.61;75.41
76897;SHT30;65856;52.178;21.176;2023-01-15T02:55:07;4.62;75.33
76897;SHT30;65856;52.178;21.176;2023-01-15T02:57:41;4.62;75.20
76897;SHT30;65856;52.178;21.176;2023-01-15T03:00:14;4.64;75.13
76897;SHT30;65856;52.178;21.176;2023-01-15T03:02:46;4.61;75.10
76897;SHT30;65856;52.178;21.176;2023-01-15T03:05:25;4.58;75.03
76897;SHT30;65856;52.178;21.176;2023-01-15T03:08:01;4.56;75.02
76897;SHT30;65856;52.178;21.176;2023-01-15T03:10:35;4.55;75.07
76897;SHT30;65856;52.178;21.176;2023-01-15T03:13:14;4.57;75.01
76897;SHT30;65856;52.178;21.176;2023-01-15T03:15:52;4.60;75.00
76897;SHT30;65856;52.178;21.176;2023-01-15T03:18:46;4.63;74.78
76897;SHT30;65856;52.178;21.176;2023-01-15T03:21:22;4.65;74.65
76897;SHT30;65856;52.178;21.176;2023-01-15T03:23:59;4.66;74.47
76897;SHT30;65856;52.178;21.176;2023-01-15T03:26:32;4.65;74.43
76897;SHT30;65856;52.178;21.176;2023-01-15T03:29:02;4.64;74.42
76897;SHT30;65856;52.178;21.176;2023-01-15T03:31:33;4.66;74.41
76897;SHT30;65856;52.178;21.176;2023-01-15T03:34:02;4.68;74.33
76897;SHT30;65856;52.178;21.176;2023-01-15T03:36:32;4.68;74.30
76897;SHT30;65856;52.178;21.176;2023-01-15T03:39:00;4.72;74.02
76897;SHT30;65856;52.178;21.176;2023-01-15T03:41:31;4.75;73.94
76897;SHT30;65856;52.178;21.176;2023-01-15T03:44:17;4.75;73.86
76897;SHT30;65856;52.178;21.176;2023-01-15T03:47:01;4.75;73.87
76897;SHT30;65856;52.178;21.176;2023-01-15T03:49:45;4.74;73.77
76897;SHT30;65856;52.178;21.176;2023-01-15T03:52:29;4.72;73.74
76897;SHT30;65856;52.178;21.176;2023-01-15T03:55:10;4.73;73.66
76897;SHT30;65856;52.178;21.176;2023-01-15T03:57:44;4.73;73.54
76897;SHT30;65856;52.178;21.176;2023-01-15T04:00:21;4.73;73.57
76897;SHT30;65856;52.178;21.176;2023-01-15T04:02:55;4.75;73.59
76897;SHT30;65856;52.178;21.176;2023-01-15T04:05:28;4.75;73.53
76897;SHT30;65856;52.178;21.176;2023-01-15T04:07:59;4.74;73.35
76897;SHT30;65856;52.178;21.176;2023-01-15T04:10:29;4.75;73.43
76897;SHT30;65856;52.178;21.176;2023-01-15T04:12:58;4.77;73.40
76897;SHT30;65856;52.178;21.176;2023-01-15T04:15:26;4.80;73.22
76897;SHT30;65856;52.178;21.176;2023-01-15T04:17:54;4.81;73.11
76897;SHT30;65856;52.178;21.176;2023-01-15T04:20:22;4.82;73.11
76897;SHT30;65856;52.178;21.176;2023-01-15T04:22:50;4.84;72.98
76897;SHT30;65856;52.178;21.176;2023-01-15T04:25:18;4.84;73.02
76897;SHT30;65856;52.178;21.176;2023-01-15T04:27:47;4.83;73.10
76897;SHT30;65856;52.178;21.176;2023-01-15T04:30:15;4.83;73.09
76897;SHT30;65856;52.178;21.176;2023-01-15T04:32:46;4.85;72.88
76897;SHT30;65856;52.178;21.176;2023-01-15T04:35:15;4.87;72.87
76897;SHT30;65856;52.178;21.176;2023-01-15T04:37:44;4.88;72.75
76897;SHT30;65856;52.178;21.176;2023-01-15T04:40:13;4.91;72.66
76897;SHT30;65856;52.178;21.176;2023-01-15T04:42:56;4.94;72.66
76897;SHT30;65856;52.178;21.176;2023-01-15T04:45:43;4.93;72.47
76897;SHT30;65856;52.178;21.176;2023-01-15T04:48:11;4.92;72.54
76897;SHT30;65856;52.178;21.176;2023-01-15T04:50:40;4.89;72.50
76897;SHT30;65856;52.178;21.176;2023-01-15T04:53:08;4.89;72.56
76897;SHT30;65856;52.178;21.176;2023-01-15T04:55:36;4.89;72.48
76897;SHT30;65856;52.178;21.176;2023-01-15T04:58:05;4.92;72.39
76897;SHT30;65856;52.178;21.176;2023-01-15T05:00:33;4.93;72.33
76897;SHT30;65856;52.178;21.176;2023-01-15T05:03:01;4.94;72.29
76897;SHT30;65856;52.178;21.176;2023-01-15T05:05:29;4.95;72.16
76897;SHT30;65856;52.178;21.176;2023-01-15T05:07:58;4.94;72.18
76897;SHT30;65856;52.178;21.176;2023-01-15T05:10:26;4.93;72.22
76897;SHT30;65856;52.178;21.176;2023-01-15T05:12:54;4.93;72.19
76897;SHT30;65856;52.178;21.176;2023-01-15T05:15:22;4.94;72.17
76897;SHT30;65856;52.178;21.176;2023-01-15T05:17:50;4.95;72.24
76897;SHT30;65856;52.178;21.176;2023-01-15T05:20:19;4.96;72.25
76897;SHT30;65856;52.178;21.176;2023-01-15T05:22:47;4.97;72.27
76897;SHT30;65856;52.178;21.176;2023-01-15T05:25:15;4.95;72.23
76897;SHT30;65856;52.178;21.176;2023-01-15T05:27:43;4.95;72.14
76897;SHT30;65856;52.178;21.176;2023-01-15T05:30:12;4.95;72.06
76897;SHT30;65856;52.178;21.176;2023-01-15T05:32:40;4.95;72.02
76897;SHT30;65856;52.178;21.176;2023-01-15T05:35:09;4.97;71.96
76897;SHT30;65856;52.178;21.176;2023-01-15T05:37:37;5.01;71.87
76897;SHT30;65856;52.178;21.176;2023-01-15T05:40:06;5.03;71.84
76897;SHT30;65856;52.178;21.176;2023-01-15T05:42:37;5.05;71.70
76897;SHT30;65856;52.178;21.176;2023-01-15T05:45:06;5.07;71.77
76897;SHT30;65856;52.178;21.176;2023-01-15T05:47:36;5.09;71.83
76897;SHT30;65856;52.178;21.176;2023-01-15T05:50:04;5.09;71.68
76897;SHT30;65856;52.178;21.176;2023-01-15T05:52:34;5.11;71.65
76897;SHT30;65856;52.178;21.176;2023-01-15T05:55:02;5.14;71.57
76897;SHT30;65856;52.178;21.176;2023-01-15T05:57:32;5.18;71.28
76897;SHT30;65856;52.178;21.176;2023-01-15T06:00:00;5.22;71.25
76897;SHT30;65856;52.178;21.176;2023-01-15T06:02:30;5.26;71.14
76897;SHT30;65856;52.178;21.176;2023-01-15T06:04:58;5.29;70.96
76897;SHT30;65856;52.178;21.176;2023-01-15T06:07:26;5.28;70.81
76897;SHT30;65856;52.178;21.176;2023-01-15T06:09:54;5.29;70.92
76897;SHT30;65856;52.178;21.176;2023-01-15T06:12:22;5.30;70.89
76897;SHT30;65856;52.178;21.176;2023-01-15T06:14:51;5.31;70.75
76897;SHT30;65856;52.178;21.176;2023-01-15T06:17:19;5.34;70.94
76897;SHT30;65856;52.178;21.176;2023-01-15T06:19:47;5.37;70.69
76897;SHT30;65856;52.178;21.176;2023-01-15T06:22:15;5.40;70.58
76897;SHT30;65856;52.178;21.176;2023-01-15T06:24:43;5.41;70.58
76897;SHT30;65856;52.178;21.176;2023-01-15T06:27:11;5.43;70.34
76897;SHT30;65856;52.178;21.176;2023-01-15T06:29:39;5.43;70.40
76897;SHT30;65856;52.178;21.176;2023-01-15T06:32:07;5.43;70.38
76897;SHT30;65856;52.178;21.176;2023-01-15T06:34:35;5.44;70.23
76897;SHT30;65856;52.178;21.176;2023-01-15T06:37:03;5.43;70.23
76897;SHT30;65856;52.178;21.176;2023-01-15T06:39:32;5.46;70.29
76897;SHT30;65856;52.178;21.176;2023-01-15T06:42:00;5.49;70.19
76897;SHT30;65856;52.178;21.176;2023-01-15T06:44:46;5.53;69.97
76897;SHT30;65856;52.178;21.176;2023-01-15T06:47:32;5.54;69.84
76897;SHT30;65856;52.178;21.176;2023-01-15T06:50:00;5.55;69.86
76897;SHT30;65856;52.178;21.176;2023-01-15T06:52:29;5.56;70.03
76897;SHT30;65856;52.178;21.176;2023-01-15T06:54:57;5.53;70.09
76897;SHT30;65856;52.178;21.176;2023-01-15T06:57:25;5.53;70.23
76897;SHT30;65856;52.178;21.176;2023-01-15T06:59:53;5.52;70.44
76897;SHT30;65856;52.178;21.176;2023-01-15T07:02:21;5.51;70.42
76897;SHT30;65856;52.178;21.176;2023-01-15T07:04:50;5.51;70.63
76897;SHT30;65856;52.178;21.176;2023-01-15T07:07:18;5.51;70.98
76897;SHT30;65856;52.178;21.176;2023-01-15T07:09:48;5.52;71.11
76897;SHT30;65856;52.178;21.176;2023-01-15T07:12:16;5.51;71.11
76897;SHT30;65856;52.178;21.176;2023-01-15T07:14:44;5.50;71.34
76897;SHT30;65856;52.178;21.176;2023-01-15T07:17:12;5.49;71.13
76897;SHT30;65856;52.178;21.176;2023-01-15T07:19:41;5.48;71.30
76897;SHT30;65856;52.178;21.176;2023-01-15T07:22:09;5.48;71.60
76897;SHT30;65856;52.178;21.176;2023-01-15T07:24:38;5.49;71.83
76897;SHT30;65856;52.178;21.176;2023-01-15T07:27:06;5.50;72.28
76897;SHT30;65856;52.178;21.176;2023-01-15T07:29:34;5.50;72.79
76897;SHT30;65856;52.178;21.176;2023-01-15T07:32:02;5.49;73.09
76897;SHT30;65856;52.178;21.176;2023-01-15T07:34:32;5.47;73.50
76897;SHT30;65856;52.178;21.176;2023-01-15T07:37:00;5.44;73.65
76897;SHT30;65856;52.178;21.176;2023-01-15T07:39:28;5.40;74.07
76897;SHT30;65856;52.178;21.176;2023-01-15T07:41:56;5.36;74.30
76897;SHT30;65856;52.178;21.176;2023-01-15T07:44:54;5.35;74.48
76897;SHT30;65856;52.178;21.176;2023-01-15T07:47:40;5.35;74.74
76897;SHT30;65856;52.178;21.176;2023-01-15T07:50:27;5.36;74.93
76897;SHT30;65856;52.178;21.176;2023-01-15T07:52:55;5.40;75.18
76897;SHT30;65856;52.178;21.176;2023-01-15T07:55:23;5.41;75.14
76897;SHT30;65856;52.178;21.176;2023-01-15T07:57:52;5.42;75.18
76897;SHT30;65856;52.178;21.176;2023-01-15T08:00:21;5.42;75.40
76897;SHT30;65856;52.178;21.176;2023-01-15T08:02:50;5.41;75.68
76897;SHT30;65856;52.178;21.176;2023-01-15T08:05:18;5.40;75.67
76897;SHT30;65856;52.178;21.176;2023-01-15T08:07:47;5.39;75.73
76897;SHT30;65856;52.178;21.176;2023-01-15T08:10:15;5.39;75.71
76897;SHT30;65856;52.178;21.176;2023-01-15T08:12:44;5.41;75.59
76897;SHT30;65856;52.178;21.176;2023-01-15T08:15:33;5.45;75.67
76897;SHT30;65856;52.178;21.176;2023-01-15T08:18:08;5.49;75.59
76897;SHT30;65856;52.178;21.176;2023-01-15T08:20:36;5.53;75.44
76897;SHT30;65856;52.178;21.176;2023-01-15T08:23:04;5.55;75.53
76897;SHT30;65856;52.178;21.176;2023-01-15T08:25:32;5.56;75.58
76897;SHT30;65856;52.178;21.176;2023-01-15T08:28:01;5.57;75.62
76897;SHT30;65856;52.178;21.176;2023-01-15T08:30:29;5.59;75.30
76897;SHT30;65856;52.178;21.176;2023-01-15T08:33:00;5.61;75.31
76897;SHT30;65856;52.178;21.176;2023-01-15T08:35:28;5.66;75.30
76897;SHT30;65856;52.178;21.176;2023-01-15T08:37:58;5.72;75.11
76897;SHT30;65856;52.178;21.176;2023-01-15T08:40:31;5.77;74.93
76897;SHT30;65856;52.178;21.176;2023-01-15T08:43:01;5.81;74.88
76897;SHT30;65856;52.178;21.176;2023-01-15T08:45:29;5.84;75.03
76897;SHT30;65856;52.178;21.176;2023-01-15T08:47:57;5.88;74.86
76897;SHT30;65856;52.178;21.176;2023-01-15T08:50:25;5.90;74.94
76897;SHT30;65856;52.178;21.176;2023-01-15T08:52:53;5.92;74.84
76897;SHT30;65856;52.178;21.176;2023-01-15T08:55:21;5.94;74.97
76897;SHT30;65856;52.178;21.176;2023-01-15T08:57:49;5.96;74.83
76897;SHT30;65856;52.178;21.176;2023-01-15T09:00:18;6.03;74.75
76897;SHT30;65856;52.178;21.176;2023-01-15T09:02:49;6.07;74.66
76897;SHT30;65856;52.178;21.176;2023-01-15T09:05:17;6.12;74.54
76897;SHT30;65856;52.178;21.176;2023-01-15T09:07:45;6.14;74.41
76897;SHT30;65856;52.178;21.176;2023-01-15T09:10:14;6.15;74.48
76897;SHT30;65856;52.178;21.176;2023-01-15T09:12:43;6.16;74.45
76897;SHT30;65856;52.178;21.176;2023-01-15T09:15:11;6.19;74.45
76897;SHT30;65856;52.178;21.176;2023-01-15T09:17:40;6.22;74.25
76897;SHT30;65856;52.178;21.176;2023-01-15T09:20:09;6.25;74.37
76897;SHT30;65856;52.178;21.176;2023-01-15T09:22:39;6.27;74.56
76897;SHT30;65856;52.178;21.176;2023-01-15T09:25:08;6.28;74.83
76897;SHT30;65856;52.178;21.176;2023-01-15T09:27:36;6.27;74.86
76897;SHT30;65856;52.178;21.176;2023-01-15T09:30:05;6.26;75.17
76897;SHT30;65856;52.178;21.176;2023-01-15T09:32:41;6.23;75.39
76897;SHT30;65856;52.178;21.176;2023-01-15T09:35:09;6.21;75.76
76897;SHT30;65856;52.178;21.176;2023-01-15T09:37:37;6.19;75.80
76897;SHT30;65856;52.178;21.176;2023-01-15T09:40:07;6.19;75.97
76897;SHT30;65856;52.178;21.176;2023-01-15T09:42:51;6.18;76.14
76897;SHT30;65856;52.178;21.176;2023-01-15T09:45:28;6.18;76.62
76897;SHT30;65856;52.178;21.176;2023-01-15T09:48:10;6.15;76.59
76897;SHT30;65856;52.178;21.176;2023-01-15T09:51:02;6.13;76.80
76897;SHT30;65856;52.178;21.176;2023-01-15T09:53:54;6.11;76.91
76897;SHT30;65856;52.178;21.176;2023-01-15T09:56:40;6.12;76.98
76897;SHT30;65856;52.178;21.176;2023-01-15T09:59:11;6.12;77.20
76897;SHT30;65856;52.178;21.176;2023-01-15T10:01:51;6.13;77.46
76897;SHT30;65856;52.178;21.176;2023-01-15T10:04:26;6.14;77.31
76897;SHT30;65856;52.178;21.176;2023-01-15T10:07:05;6.14;77.61
76897;SHT30;65856;52.178;21.176;2023-01-15T10:09:44;6.13;77.87
76897;SHT30;65856;52.178;21.176;2023-01-15T10:12:24;6.11;78.09
76897;SHT30;65856;52.178;21.176;2023-01-15T10:17:57;6.13;78.15
76897;SHT30;65856;52.178;21.176;2023-01-15T10:20:37;6.13;78.25
76897;SHT30;65856;52.178;21.176;2023-01-15T10:26:21;6.14;78.26
76897;SHT30;65856;52.178;21.176;2023-01-15T10:28:58;6.12;78.38
76897;SHT30;65856;52.178;21.176;2023-01-15T10:37:40;6.09;78.94
76897;SHT30;65856;52.178;21.176;2023-01-15T10:40:17;6.09;79.05
76897;SHT30;65856;52.178;21.176;2023-01-15T10:43:12;6.12;79.00
76897;SHT30;65856;52.178;21.176;2023-01-15T10:45:47;6.14;79.00
76897;SHT30;65856;52.178;21.176;2023-01-15T10:48:24;6.15;79.02
76897;SHT30;65856;52.178;21.176;2023-01-15T10:51:05;6.15;78.97
76897;SHT30;65856;52.178;21.176;2023-01-15T10:53:44;6.14;79.11
76897;SHT30;65856;52.178;21.176;2023-01-15T10:56:25;6.14;79.14
76897;SHT30;65856;52.178;21.176;2023-01-15T10:59:02;6.14;79.31
76897;SHT30;65856;52.178;21.176;2023-01-15T11:01:40;6.14;79.39
76897;SHT30;65856;52.178;21.176;2023-01-15T11:04:09;6.15;79.38
76897;SHT30;65856;52.178;21.176;2023-01-15T11:06:38;6.16;79.48
76897;SHT30;65856;52.178;21.176;2023-01-15T11:09:08;6.16;79.68
76897;SHT30;65856;52.178;21.176;2023-01-15T11:11:48;6.13;79.73
76897;SHT30;65856;52.178;21.176;2023-01-15T11:14:37;6.11;79.84
76897;SHT30;65856;52.178;21.176;2023-01-15T11:17:26;6.11;80.07
76897;SHT30;65856;52.178;21.176;2023-01-15T11:20:19;6.11;80.13
76897;SHT30;65856;52.178;21.176;2023-01-15T11:22:54;6.11;80.14
76897;SHT30;65856;52.178;21.176;2023-01-15T11:25:31;6.12;80.23
76897;SHT30;65856;52.178;21.176;2023-01-15T11:28:01;6.14;80.33
76897;SHT30;65856;52.178;21.176;2023-01-15T11:30:33;6.12;80.42
76897;SHT30;65856;52.178;21.176;2023-01-15T11:33:05;6.11;80.50
76897;SHT30;65856;52.178;21.176;2023-01-15T11:35:49;6.08;80.52
76897;SHT30;65856;52.178;21.176;2023-01-15T11:38:17;6.05;80.68
76897;SHT30;65856;52.178;21.176;2023-01-15T11:40:51;6.03;80.71
76897;SHT30;65856;52.178;21.176;2023-01-15T11:43:23;6.04;80.92
76897;SHT30;65856;52.178;21.176;2023-01-15T11:46:25;6.05;80.86
76897;SHT30;65856;52.178;21.176;2023-01-15T11:49:15;6.06;80.93
76897;SHT30;65856;52.178;21.176;2023-01-15T11:52:04;6.05;81.04
76897;SHT30;65856;52.178;21.176;2023-01-15T11:54:36;6.06;81.13
76897;SHT30;65856;52.178;21.176;2023-01-15T11:57:10;6.06;81.12
76897;SHT30;65856;52.178;21.176;2023-01-15T11:59:50;6.06;81.10
76897;SHT30;65856;52.178;21.176;2023-01-15T12:02:20;6.09;81.22
76897;SHT30;65856;52.178;21.176;2023-01-15T12:05:02;6.13;81.12
76897;SHT30;65856;52.178;21.176;2023-01-15T12:07:39;6.13;81.01
76897;SHT30;65856;52.178;21.176;2023-01-15T12:10:11;6.13;81.00
76897;SHT30;65856;52.178;21.176;2023-01-15T12:13:08;6.14;81.15
76897;SHT30;65856;52.178;21.176;2023-01-15T12:15:54;6.16;81.11
76897;SHT30;65856;52.178;21.176;2023-01-15T12:21:28;6.21;81.11
76897;SHT30;65856;52.178;21.176;2023-01-15T12:24:26;6.22;81.09
76897;SHT30;65856;52.178;21.176;2023-01-15T12:27:20;6.21;81.12
76897;SHT30;65856;52.178;21.176;2023-01-15T12:30:17;6.18;81.14
76897;SHT30;65856;52.178;21.176;2023-01-15T12:32:57;6.18;81.20
76897;SHT30;65856;52.178;21.176;2023-01-15T12:35:41;6.17;81.17
76897;SHT30;65856;52.178;21.176;2023-01-15T12:38:17;6.18;81.18
76897;SHT30;65856;52.178;21.176;2023-01-15T12:40:58;6.20;81.20
76897;SHT30;65856;52.178;21.176;2023-01-15T12:43:33;6.22;81.16
76897;SHT30;65856;52.178;21.176;2023-01-15T12:46:22;6.23;81.13
76897;SHT30;65856;52.178;21.176;2023-01-15T12:48:57;6.25;81.08
76897;SHT30;65856;52.178;21.176;2023-01-15T12:51:38;6.28;81.09
76897;SHT30;65856;52.178;21.176;2023-01-15T12:54:17;6.27;81.07
76897;SHT30;65856;52.178;21.176;2023-01-15T12:56:56;6.26;81.12
76897;SHT30;65856;52.178;21.176;2023-01-15T12:59:29;6.28;81.03
76897;SHT30;65856;52.178;21.176;2023-01-15T13:02:09;6.31;81.09
76897;SHT30;65856;52.178;21.176;2023-01-15T13:04:47;6.36;80.97
76897;SHT30;65856;52.178;21.176;2023-01-15T13:07:20;6.40;80.84
76897;SHT30;65856;52.178;21.176;2023-01-15T13:10:00;6.42;80.74
76897;SHT30;65856;52.178;21.176;2023-01-15T13:12:36;6.42;80.76
76897;SHT30;65856;52.178;21.176;2023-01-15T13:15:05;6.41;80.75
76897;SHT30;65856;52.178;21.176;2023-01-15T13:17:43;6.40;80.70
76897;SHT30;65856;52.178;21.176;2023-01-15T13:20:35;6.42;80.58
76897;SHT30;65856;52.178;21.176;2023-01-15T13:23:17;6.43;80.61
76897;SHT30;65856;52.178;21.176;2023-01-15T13:26:08;6.48;80.62
76897;SHT30;65856;52.178;21.176;2023-01-15T13:28:58;6.49;80.53
76897;SHT30;65856;52.178;21.176;2023-01-15T13:31:42;6.52;80.48
76897;SHT30;65856;52.178;21.176;2023-01-15T13:34:26;6.53;80.43
76897;SHT30;65856;52.178;21.176;2023-01-15T13:37:05;6.53;80.41
76897;SHT30;65856;52.178;21.176;2023-01-15T13:39:45;6.52;80.39
76897;SHT30;65856;52.178;21.176;2023-01-15T13:42:18;6.55;80.49
76897;SHT30;65856;52.178;21.176;2023-01-15T13:44:59;6.56;80.45
76897;SHT30;65856;52.178;21.176;2023-01-15T13:47:34;6.59;80.36
76897;SHT30;65856;52.178;21.176;2023-01-15T13:50:12;6.63;80.29
76897;SHT30;65856;52.178;21.176;2023-01-15T13:52:44;6.66;80.15
76897;SHT30;65856;52.178;21.176;2023-01-15T13:55:22;6.68;80.18
76897;SHT30;65856;52.178;21.176;2023-01-15T13:57:57;6.68;80.03
76897;SHT30;65856;52.178;21.176;2023-01-15T14:00:27;6.69;80.03
76897;SHT30;65856;52.178;21.176;2023-01-15T14:02:59;6.69;80.09
76897;SHT30;65856;52.178;21.176;2023-01-15T14:05:29;6.67;80.13
76897;SHT30;65856;52.178;21.176;2023-01-15T14:08:00;6.69;80.04
76897;SHT30;65856;52.178;21.176;2023-01-15T14:10:41;6.69;80.02
76897;SHT30;65856;52.178;21.176;2023-01-15T14:16:32;6.75;80.00
76897;SHT30;65856;52.178;21.176;2023-01-15T14:19:31;6.77;79.80
76897;SHT30;65856;52.178;21.176;2023-01-15T14:22:25;6.77;79.83
76897;SHT30;65856;52.178;21.176;2023-01-15T14:25:21;6.76;79.75
76897;SHT30;65856;52.178;21.176;2023-01-15T14:28:16;6.77;79.69
76897;SHT30;65856;52.178;21.176;2023-01-15T14:31:09;6.78;79.65
76897;SHT30;65856;52.178;21.176;2023-01-15T14:34:16;6.76;79.68
76897;SHT30;65856;52.178;21.176;2023-01-15T14:36:50;6.76;79.57
76897;SHT30;65856;52.178;21.176;2023-01-15T14:39:26;6.78;79.60
76897;SHT30;65856;52.178;21.176;2023-01-15T14:42:03;6.80;79.46
76897;SHT30;65856;52.178;21.176;2023-01-15T14:44:55;6.85;79.28
76897;SHT30;65856;52.178;21.176;2023-01-15T14:47:29;6.87;79.20
76897;SHT30;65856;52.178;21.176;2023-01-15T14:53:05;6.90;78.95
76897;SHT30;65856;52.178;21.176;2023-01-15T14:55:52;6.91;78.83
76897;SHT30;65856;52.178;21.176;2023-01-15T14:58:33;6.92;78.80
76897;SHT30;65856;52.178;21.176;2023-01-15T15:01:14;6.93;78.75
76897;SHT30;65856;52.178;21.176;2023-01-15T15:03:53;6.97;78.70
76897;SHT30;65856;52.178;21.176;2023-01-15T15:06:25;7.01;78.54
76897;SHT30;65856;52.178;21.176;2023-01-15T15:08:56;7.03;78.50
76897;SHT30;65856;52.178;21.176;2023-01-15T15:11:32;7.05;78.37
76897;SHT30;65856;52.178;21.176;2023-01-15T15:14:27;7.09;78.21
76897;SHT30;65856;52.178;21.176;2023-01-15T15:16:57;7.09;78.21
76897;SHT30;65856;52.178;21.176;2023-01-15T15:19:32;7.08;78.22
76897;SHT30;65856;52.178;21.176;2023-01-15T15:22:09;7.11;78.27
76897;SHT30;65856;52.178;21.176;2023-01-15T15:24:43;7.11;78.23
76897;SHT30;65856;52.178;21.176;2023-01-15T15:27:16;7.12;78.18
76897;SHT30;65856;52.178;21.176;2023-01-15T15:29:45;7.12;78.20
76897;SHT30;65856;52.178;21.176;2023-01-15T15:32:16;7.16;78.37
76897;SHT30;65856;52.178;21.176;2023-01-15T15:34:48;7.23;78.48
76897;SHT30;65856;52.178;21.176;2023-01-15T15:37:21;7.31;78.32
76897;SHT30;65856;52.178;21.176;2023-01-15T15:39:54;7.35;77.96
76897;SHT30;65856;52.178;21.176;2023-01-15T15:42:27;7.32;77.70
76897;SHT30;65856;52.178;21.176;2023-01-15T15:45:23;7.27;77.64
76897;SHT30;65856;52.178;21.176;2023-01-15T15:48:12;7.24;77.67
76897;SHT30;65856;52.178;21.176;2023-01-15T15:51:23;7.20;77.59
76897;SHT30;65856;52.178;21.176;2023-01-15T15:54:10;7.16;77.55
76897;SHT30;65856;52.178;21.176;2023-01-15T15:56:44;7.14;77.50
76897;SHT30;65856;52.178;21.176;2023-01-15T15:59:26;7.13;77.39
76897;SHT30;65856;52.178;21.176;2023-01-15T16:01:58;7.14;77.31
76897;SHT30;65856;52.178;21.176;2023-01-15T16:04:43;7.16;77.18
76897;SHT30;65856;52.178;21.176;2023-01-15T16:07:16;7.18;77.09
76897;SHT30;65856;52.178;21.176;2023-01-15T16:09:52;7.18;77.00
76897;SHT30;65856;52.178;21.176;2023-01-15T16:12:24;7.18;76.88
76897;SHT30;65856;52.178;21.176;2023-01-15T16:14:56;7.18;76.89
76897;SHT30;65856;52.178;21.176;2023-01-15T16:17:26;7.18;76.84
76897;SHT30;65856;52.178;21.176;2023-01-15T16:19:55;7.18;76.80
76897;SHT30;65856;52.178;21.176;2023-01-15T16:22:24;7.18;76.77
76897;SHT30;65856;52.178;21.176;2023-01-15T16:24:52;7.20;76.61
76897;SHT30;65856;52.178;21.176;2023-01-15T16:27:23;7.22;76.38
76897;SHT30;65856;52.178;21.176;2023-01-15T16:29:57;7.25;76.44
76897;SHT30;65856;52.178;21.176;2023-01-15T16:32:27;7.28;76.51
76897;SHT30;65856;52.178;21.176;2023-01-15T16:35:03;7.30;76.50
76897;SHT30;65856;52.178;21.176;2023-01-15T16:37:40;7.33;76.63